createdAt,value
2018-09-18T00:01:32.330Z,84.60
2018-09-18T00:04:01.602Z,84.60
2018-09-18T00:06:30.757Z,84.00
2018-09-18T00:08:59.901Z,84.10
2018-09-18T00:11:29.041Z,84.30
2018-09-18T00:13:59.115Z,85.20
2018-09-18T00:16:28.255Z,85.40
2018-09-18T00:18:57.405Z,84.80
2018-09-18T00:21:26.590Z,84.70
2018-09-18T00:23:55.730Z,84.70
2018-09-18T00:26:25.576Z,85.00
2018-09-18T00:28:54.733Z,85.40
2018-09-18T00:31:23.999Z,85.20
2018-09-18T00:33:53.122Z,85.40
2018-09-18T00:36:22.503Z,85.90
2018-09-18T00:38:51.613Z,86.20
2018-09-18T00:41:20.875Z,87.00
2018-09-18T00:43:49.985Z,87.50
2018-09-18T00:46:19.127Z,87.70
2018-09-18T00:48:48.323Z,87.30
2018-09-18T00:51:17.555Z,86.70
2018-09-18T00:53:46.680Z,86.90
2018-09-18T00:56:15.805Z,87.00
2018-09-18T00:58:44.998Z,87.20
2018-09-18T01:01:14.101Z,86.90
2018-09-18T01:03:43.246Z,87.30
2018-09-18T01:06:12.645Z,87.30
2018-09-18T01:08:41.788Z,86.90
2018-09-18T01:11:10.947Z,86.90
2018-09-18T01:13:40.094Z,87.50
2018-09-18T01:16:09.245Z,87.70
2018-09-18T01:18:40.220Z,87.20
2018-09-18T01:21:10.004Z,87.10
2018-09-18T01:23:39.229Z,87.50
2018-09-18T01:26:08.414Z,87.90
2018-09-18T01:28:37.681Z,88.10
2018-09-18T01:31:06.809Z,88.20
2018-09-18T01:33:36.199Z,88.90
2018-09-18T01:36:05.510Z,88.70
2018-09-18T01:38:34.674Z,88.30
2018-09-18T01:41:03.822Z,88.20
2018-09-18T01:43:32.976Z,88.00
2018-09-18T01:46:02.168Z,88.70
2018-09-18T01:48:31.269Z,89.30
2018-09-18T01:51:00.409Z,88.70
2018-09-18T01:53:29.555Z,89.20
2018-09-18T01:55:58.670Z,89.90
2018-09-18T01:58:27.808Z,89.50
2018-09-18T02:00:56.948Z,89.40
2018-09-18T02:03:26.099Z,89.20
2018-09-18T02:05:55.209Z,88.90
2018-09-18T02:08:24.354Z,88.70
2018-09-18T02:10:53.529Z,88.80
2018-09-18T02:13:22.639Z,89.00
2018-09-18T02:15:51.776Z,88.80
2018-09-18T02:18:20.931Z,88.30
2018-09-18T02:20:50.162Z,87.90
2018-09-18T02:23:19.303Z,88.30
2018-09-18T02:25:48.410Z,88.30
2018-09-18T02:28:17.549Z,88.20
2018-09-18T02:30:46.657Z,87.80
2018-09-18T02:33:15.918Z,88.10
2018-09-18T02:35:45.098Z,88.00
2018-09-18T02:38:14.188Z,88.30
2018-09-18T02:40:43.337Z,89.10
2018-09-18T02:43:12.504Z,89.10
2018-09-18T02:45:41.801Z,89.40
2018-09-18T02:48:10.922Z,90.00
2018-09-18T02:50:40.081Z,90.00
2018-09-18T02:53:09.202Z,89.70
2018-09-18T02:55:38.321Z,89.80
2018-09-18T02:58:07.429Z,90.00
2018-09-18T03:00:36.536Z,90.20
2018-09-18T03:03:05.680Z,90.10
2018-09-18T03:05:34.806Z,90.00
2018-09-18T03:08:03.914Z,89.70
2018-09-18T03:10:33.008Z,89.50
2018-09-18T03:13:02.115Z,89.10
2018-09-18T03:15:31.466Z,89.00
2018-09-18T03:18:00.658Z,89.10
2018-09-18T03:20:31.032Z,89.10
2018-09-18T03:23:00.118Z,89.90
2018-09-18T03:25:29.250Z,89.80
2018-09-18T03:27:59.083Z,90.00
2018-09-18T03:30:28.281Z,90.40
2018-09-18T03:32:57.501Z,90.50
2018-09-18T03:35:26.639Z,90.80
2018-09-18T03:38:02.153Z,90.90
2018-09-18T03:40:31.554Z,90.80
2018-09-18T03:43:01.024Z,91.10
2018-09-18T03:45:30.129Z,91.20
2018-09-18T03:47:59.322Z,90.90
2018-09-18T03:50:28.506Z,90.70
2018-09-18T03:52:57.613Z,90.50
2018-09-18T03:55:26.814Z,90.50
2018-09-18T03:57:55.970Z,90.40
2018-09-18T04:00:25.070Z,90.30
2018-09-18T04:02:54.262Z,90.40
2018-09-18T04:05:23.370Z,90.40
2018-09-18T04:07:52.495Z,90.60
2018-09-18T04:10:21.606Z,90.80
2018-09-18T04:12:50.715Z,91.00
2018-09-18T04:15:19.863Z,91.20
2018-09-18T04:17:48.998Z,91.40
2018-09-18T04:20:18.177Z,91.60
2018-09-18T04:22:47.295Z,91.40
2018-09-18T04:25:16.405Z,91.60
2018-09-18T04:27:45.876Z,92.00
2018-09-18T04:30:15.101Z,92.10
2018-09-18T04:32:44.273Z,91.90
2018-09-18T04:35:13.405Z,92.00
2018-09-18T04:37:42.534Z,91.80
2018-09-18T04:40:11.703Z,91.90
2018-09-18T04:42:40.861Z,92.00
2018-09-18T04:45:10.206Z,91.90
2018-09-18T04:47:39.341Z,91.70
2018-09-18T04:50:08.519Z,91.50
2018-09-18T04:52:37.769Z,91.50
2018-09-18T04:55:07.068Z,91.50
2018-09-18T04:57:36.985Z,91.60
2018-09-18T05:00:07.884Z,91.30
2018-09-18T05:02:37.525Z,91.30
2018-09-18T05:05:06.744Z,91.20
2018-09-18T05:07:36.085Z,91.40
2018-09-18T05:10:05.253Z,91.90
2018-09-18T05:12:34.398Z,92.20
2018-09-18T05:15:03.563Z,92.30
2018-09-18T05:17:32.726Z,92.60
2018-09-18T05:20:02.239Z,92.60
2018-09-18T05:22:31.396Z,92.50
2018-09-18T05:25:00.586Z,92.30
2018-09-18T05:27:29.711Z,92.30
2018-09-18T05:29:58.855Z,92.20
2018-09-18T05:32:27.962Z,91.60
2018-09-18T05:34:57.159Z,91.70
2018-09-18T05:37:26.422Z,91.20
2018-09-18T05:39:55.573Z,91.20
2018-09-18T05:42:24.726Z,91.60
2018-09-18T05:44:53.927Z,91.10
2018-09-18T05:47:23.062Z,91.10
2018-09-18T05:49:52.296Z,91.30
2018-09-18T05:52:21.452Z,90.90
2018-09-18T05:54:50.616Z,90.70
2018-09-18T05:57:19.746Z,90.90
2018-09-18T05:59:48.902Z,90.90
2018-09-18T06:02:18.320Z,90.80
2018-09-18T06:04:47.426Z,90.60
2018-09-18T06:07:16.638Z,90.30
2018-09-18T06:09:45.817Z,90.40
2018-09-18T06:12:15.074Z,90.40
2018-09-18T06:14:44.255Z,90.50
2018-09-18T06:17:13.378Z,90.50
2018-09-18T06:19:42.743Z,90.70
2018-09-18T06:22:11.950Z,90.60
2018-09-18T06:24:41.174Z,91.00
2018-09-18T06:27:10.373Z,91.50
2018-09-18T06:29:39.539Z,91.40
2018-09-18T06:32:08.717Z,91.00
2018-09-18T06:34:38.031Z,91.20
2018-09-18T06:37:07.253Z,90.80
2018-09-18T06:39:36.386Z,90.60
2018-09-18T06:42:05.550Z,90.40
2018-09-18T06:44:34.719Z,90.40
2018-09-18T06:47:03.904Z,90.30
2018-09-18T06:49:33.095Z,90.40
2018-09-18T06:52:02.305Z,90.50
2018-09-18T06:54:31.517Z,90.60
2018-09-18T06:57:00.575Z,90.80
2018-09-18T06:59:29.715Z,90.90
2018-09-18T07:02:00.975Z,90.60
2018-09-18T07:04:30.608Z,90.70
2018-09-18T07:06:59.797Z,90.80
2018-09-18T07:09:29.078Z,90.90
2018-09-18T07:11:58.246Z,90.90
2018-09-18T07:14:27.441Z,91.00
2018-09-18T07:16:56.626Z,90.80
2018-09-18T07:19:25.837Z,90.90
2018-09-18T07:21:54.999Z,90.60
2018-09-18T07:24:24.148Z,90.40
2018-09-18T07:26:53.348Z,90.30
2018-09-18T07:29:22.655Z,90.40
2018-09-18T07:31:51.798Z,89.80
2018-09-18T07:34:21.000Z,89.10
2018-09-18T07:36:50.405Z,88.90
2018-09-18T07:39:19.575Z,89.20
2018-09-18T07:41:48.743Z,89.30
2018-09-18T07:44:17.917Z,89.60
2018-09-18T07:46:47.094Z,89.40
2018-09-18T07:49:16.274Z,89.50
2018-09-18T07:51:45.500Z,89.60
2018-09-18T07:54:14.737Z,89.70
2018-09-18T07:56:43.905Z,89.50
2018-09-18T07:59:13.052Z,89.30
2018-09-18T08:01:42.258Z,89.00
2018-09-18T08:04:11.451Z,88.80
2018-09-18T08:06:40.674Z,88.70
2018-09-18T08:09:10.810Z,88.30
2018-09-18T08:11:40.186Z,87.90
2018-09-18T08:14:09.334Z,87.50
2018-09-18T08:16:38.518Z,87.20
2018-09-18T08:19:07.662Z,86.90
2018-09-18T08:21:36.924Z,86.70
2018-09-18T08:24:07.070Z,86.40
2018-09-18T08:26:36.217Z,85.90
2018-09-18T08:29:05.423Z,85.40
2018-09-18T08:31:34.664Z,84.80
2018-09-18T08:34:03.783Z,85.60
2018-09-18T08:36:33.074Z,83.70
2018-09-18T08:39:02.281Z,83.10
2018-09-18T08:41:31.374Z,82.40
2018-09-18T08:44:00.781Z,81.80
2018-09-18T08:46:30.658Z,81.50
2018-09-18T08:48:59.808Z,81.50
2018-09-18T08:51:28.985Z,81.60
2018-09-18T08:53:58.206Z,81.30
2018-09-18T08:56:27.439Z,81.00
2018-09-18T08:58:57.115Z,80.50
2018-09-18T09:01:26.282Z,80.20
2018-09-18T09:03:55.418Z,79.90
2018-09-18T09:06:24.749Z,79.30
2018-09-18T09:08:53.939Z,79.60
2018-09-18T09:11:22.979Z,79.30
2018-09-18T09:13:52.190Z,79.40
2018-09-18T09:16:21.267Z,79.60
2018-09-18T09:18:50.416Z,79.20
2018-09-18T09:21:19.723Z,78.80
2018-09-18T09:23:48.872Z,78.90
2018-09-18T09:26:18.015Z,78.80
2018-09-18T09:28:47.202Z,78.70
2018-09-18T09:31:16.954Z,79.20
2018-09-18T09:33:46.058Z,78.70
2018-09-18T09:36:15.664Z,79.50
2018-09-18T09:38:44.899Z,78.70
2018-09-18T09:41:14.049Z,78.50
2018-09-18T09:43:43.861Z,78.20
2018-09-18T09:46:13.555Z,78.10
2018-09-18T09:48:42.901Z,77.90
2018-09-18T09:51:12.094Z,77.60
2018-09-18T09:53:41.255Z,77.60
2018-09-18T09:56:10.392Z,77.40
2018-09-18T09:58:39.571Z,77.20
2018-09-18T10:01:14.110Z,76.80
2018-09-18T10:03:43.235Z,76.70
2018-09-18T10:06:12.440Z,76.30
2018-09-18T10:08:41.647Z,76.80
2018-09-18T10:11:10.791Z,77.10
2018-09-18T10:13:39.985Z,76.60
2018-09-18T10:16:09.121Z,75.70
2018-09-18T11:52:52.459Z,92.40
2018-09-18T12:07:45.294Z,91.30
2018-09-18T12:15:11.954Z,91.70
2018-09-18T12:17:41.081Z,92.20
2018-09-18T12:20:10.567Z,92.20
2018-09-18T12:22:39.728Z,92.10
2018-09-18T12:25:08.870Z,92.00
2018-09-18T12:27:38.009Z,91.70
2018-09-18T12:30:07.431Z,91.60
2018-09-18T12:35:05.375Z,91.10
2018-09-18T12:37:34.514Z,91.50
2018-09-18T12:40:03.710Z,91.20
2018-09-18T12:42:32.986Z,90.80
2018-09-18T12:45:02.030Z,90.60
2018-09-18T12:47:32.125Z,90.60
2018-09-18T12:50:01.625Z,90.80
2018-09-18T12:52:30.519Z,90.60
2018-09-18T12:59:57.259Z,89.50
2018-09-18T13:02:26.326Z,90.20
2018-09-18T13:04:55.518Z,90.00
2018-09-18T13:07:24.696Z,89.00
2018-09-18T13:09:53.887Z,88.50
2018-09-18T13:12:23.034Z,88.60
2018-09-18T13:14:52.199Z,88.10
2018-09-18T13:17:21.414Z,88.50
2018-09-18T13:19:50.708Z,88.80
2018-09-18T13:22:19.828Z,88.70
2018-09-18T13:24:49.114Z,89.60
2018-09-18T13:27:18.278Z,89.90
2018-09-18T13:29:47.420Z,90.10
2018-09-18T13:32:16.586Z,89.70
2018-09-18T13:34:45.741Z,89.80
2018-09-18T13:37:14.893Z,89.00
2018-09-18T13:54:36.594Z,87.30
2018-09-18T14:21:53.738Z,87.80
2018-09-18T14:26:51.681Z,88.10
2018-09-18T14:29:20.832Z,88.90
2018-09-18T14:31:50.010Z,88.40
2018-09-18T14:34:19.126Z,87.80
2018-09-18T14:36:48.275Z,88.00
2018-09-18T14:39:17.422Z,88.40
2018-09-18T14:41:46.633Z,88.70
2018-09-18T14:44:15.789Z,87.70
2018-09-18T14:46:44.957Z,87.60
2018-09-18T14:51:42.905Z,85.80
2018-09-18T14:56:40.760Z,85.30
2018-09-18T14:59:09.922Z,86.80
2018-09-18T15:01:39.065Z,88.90
2018-09-18T15:04:08.221Z,89.60
2018-09-18T15:06:37.334Z,90.10
2018-09-18T15:09:08.430Z,90.50
2018-09-18T15:11:37.634Z,90.80
2018-09-18T15:14:07.106Z,91.10
2018-09-18T15:16:36.410Z,91.40
2018-09-18T15:21:34.532Z,91.60
2018-09-18T15:24:03.615Z,92.10
2018-09-18T15:26:32.793Z,92.20
2018-09-18T15:29:01.927Z,92.60
2018-09-18T15:31:31.425Z,92.50
2018-09-18T15:34:00.678Z,92.50
2018-09-18T15:36:29.802Z,92.40
2018-09-18T15:39:02.870Z,92.40
2018-09-18T15:41:33.892Z,92.50
2018-09-18T15:44:11.224Z,92.60
2018-09-18T15:46:41.659Z,92.70
2018-09-18T15:49:14.688Z,92.80
2018-09-18T15:51:46.443Z,92.80
2018-09-18T15:54:19.993Z,92.90
2018-09-18T15:56:49.128Z,93.10
2018-09-18T15:59:18.278Z,93.20
2018-09-18T16:01:47.479Z,93.40
2018-09-18T16:04:16.674Z,93.60
2018-09-18T16:06:45.831Z,93.70
2018-09-18T16:09:15.003Z,93.90
2018-09-18T16:11:44.194Z,94.00
2018-09-18T16:14:13.337Z,94.10
2018-09-18T16:16:42.590Z,94.20
2018-09-18T16:19:11.768Z,94.30
2018-09-18T16:21:40.889Z,94.60
2018-09-18T16:24:10.081Z,94.70
2018-09-18T16:26:39.236Z,94.80
2018-09-18T16:29:08.363Z,94.90
2018-09-18T16:31:37.546Z,95.30
2018-09-18T16:34:06.820Z,95.30
2018-09-18T16:36:36.127Z,95.60
2018-09-18T16:39:06.143Z,95.40
2018-09-18T16:41:35.339Z,95.50
2018-09-18T16:44:04.525Z,95.60
2018-09-18T16:46:33.675Z,95.80
2018-09-18T16:49:03.810Z,95.90
2018-09-18T16:51:33.391Z,96.00
2018-09-18T16:54:02.544Z,96.00
2018-09-18T16:56:31.726Z,96.10
2018-09-18T16:59:01.001Z,96.10
2018-09-18T17:01:30.229Z,96.10
2018-09-18T17:03:59.486Z,95.90
2018-09-18T17:06:28.781Z,95.90
2018-09-18T17:08:57.971Z,95.80
2018-09-18T17:11:29.895Z,95.80
2018-09-18T17:13:59.238Z,95.60
2018-09-18T17:16:28.647Z,96.20
2018-09-18T17:18:57.729Z,96.50
2018-09-18T17:21:27.083Z,96.20
2018-09-18T17:23:56.326Z,96.80
2018-09-18T17:26:26.068Z,96.40
2018-09-18T17:28:55.332Z,95.40
2018-09-18T17:31:25.027Z,94.60
2018-09-18T17:33:54.199Z,95.30
2018-09-18T17:36:23.398Z,95.00
2018-09-18T17:38:52.631Z,94.90
2018-09-18T17:41:21.889Z,95.00
2018-09-18T17:43:51.109Z,95.70
2018-09-18T17:46:21.370Z,96.30
2018-09-18T17:48:50.762Z,98.40
2018-09-18T17:51:19.967Z,98.60
2018-09-18T17:53:49.177Z,98.60
2018-09-18T17:56:18.458Z,97.70
2018-09-18T17:58:47.970Z,98.10
2018-09-18T18:01:17.142Z,97.30
2018-09-18T18:03:46.597Z,96.50
2018-09-18T18:06:15.886Z,96.10
2018-09-18T18:08:45.111Z,95.00
2018-09-18T18:11:14.291Z,94.90
2018-09-18T18:13:43.515Z,95.60
2018-09-18T18:16:12.689Z,94.70
2018-09-18T18:18:42.186Z,95.00
2018-09-18T18:21:11.524Z,95.00
2018-09-18T18:23:40.983Z,95.20
2018-09-18T18:26:10.266Z,94.80
2018-09-18T18:28:39.553Z,95.20
2018-09-18T18:31:08.978Z,95.70
2018-09-18T18:33:38.301Z,95.40
2018-09-18T18:36:07.640Z,95.30
2018-09-18T18:38:36.966Z,95.60
2018-09-18T18:41:06.511Z,95.70
2018-09-18T18:43:35.818Z,95.30
2018-09-18T18:46:05.384Z,94.70
2018-09-18T18:48:34.814Z,94.60
2018-09-18T18:51:04.233Z,94.40
2018-09-18T18:53:33.574Z,94.50
2018-09-18T18:56:02.820Z,94.50
2018-09-18T18:58:32.252Z,94.50
2018-09-18T19:01:01.671Z,94.70
2018-09-18T19:03:37.643Z,95.00
2018-09-18T19:06:07.003Z,95.30
2018-09-18T19:08:36.356Z,95.20
2018-09-18T19:11:07.031Z,95.30
2018-09-18T19:13:36.186Z,95.50
2018-09-18T19:16:05.365Z,95.70
2018-09-18T19:18:34.630Z,95.90
2018-09-18T19:21:03.893Z,96.00
2018-09-18T19:23:33.168Z,96.00
2018-09-18T19:26:02.337Z,96.10
2018-09-18T19:28:35.159Z,96.10
2018-09-18T19:31:04.655Z,96.10
2018-09-18T19:33:33.879Z,96.30
2018-09-18T19:36:03.130Z,96.30
2018-09-18T19:38:32.249Z,96.10
2018-09-18T19:41:01.457Z,96.60
2018-09-18T19:43:30.650Z,96.50
2018-09-18T19:45:59.834Z,96.70
2018-09-18T19:48:29.146Z,96.40
2018-09-18T19:50:58.371Z,96.40
2018-09-18T19:53:28.256Z,96.30
2018-09-18T19:55:57.428Z,96.30
2018-09-18T19:58:26.658Z,96.40
2018-09-18T20:00:55.880Z,96.30
2018-09-18T20:03:25.158Z,96.40
2018-09-18T20:05:54.249Z,96.60
2018-09-18T20:08:23.501Z,96.80
2018-09-18T20:10:52.852Z,96.70
2018-09-18T20:13:22.076Z,96.80
2018-09-18T20:15:51.266Z,96.90
2018-09-18T20:18:20.475Z,97.10
2018-09-18T20:20:49.715Z,97.20
2018-09-18T20:23:18.838Z,97.30
2018-09-18T20:25:48.043Z,97.40
2018-09-18T20:28:17.247Z,97.50
2018-09-18T20:30:46.451Z,97.80
2018-09-18T20:33:15.682Z,97.70
2018-09-18T20:35:44.932Z,97.60
2018-09-18T20:38:14.767Z,97.90
2018-09-18T20:40:44.145Z,97.60
2018-09-18T20:43:13.365Z,97.50
2018-09-18T20:45:42.707Z,97.40
2018-09-18T20:48:12.069Z,97.40
2018-09-18T20:50:41.991Z,97.60
2018-09-18T20:53:11.287Z,97.80
2018-09-18T20:55:40.504Z,97.70
2018-09-18T20:58:11.995Z,97.60
2018-09-18T21:00:41.683Z,97.80
2018-09-18T21:03:10.968Z,97.80
2018-09-18T21:05:40.229Z,98.00
2018-09-18T21:08:09.416Z,98.00
2018-09-18T21:10:38.577Z,98.00
2018-09-18T21:13:07.854Z,98.00
2018-09-18T21:15:37.056Z,98.20
2018-09-18T21:18:06.252Z,98.20
2018-09-18T21:20:35.500Z,98.00
2018-09-18T21:23:04.726Z,98.00
2018-09-18T21:26:12.032Z,97.90
2018-09-18T21:28:41.258Z,98.30
2018-09-18T21:31:10.466Z,97.80
2018-09-18T21:33:39.720Z,97.90
2018-09-18T21:36:09.059Z,98.00
2018-09-18T21:38:38.237Z,98.00
2018-09-18T21:41:07.407Z,98.00
2018-09-18T21:43:36.573Z,98.00
2018-09-18T21:46:05.753Z,98.10
2018-09-18T21:48:34.923Z,98.20
2018-09-18T21:51:04.130Z,98.40
2018-09-18T21:53:33.313Z,98.40
2018-09-18T21:56:02.506Z,98.50
2018-09-18T21:58:31.684Z,98.50
2018-09-18T22:01:03.741Z,98.40
2018-09-18T22:03:33.255Z,98.30
2018-09-18T22:06:02.905Z,98.30
2018-09-18T22:08:32.100Z,98.40
2018-09-18T22:11:01.250Z,98.50
2018-09-18T22:13:30.412Z,98.60
2018-09-18T22:15:59.582Z,98.70
2018-09-18T22:18:28.727Z,98.70
2018-09-18T22:20:57.894Z,98.70
2018-09-18T22:23:27.107Z,98.60
2018-09-18T22:25:56.261Z,98.60
2018-09-18T22:28:25.600Z,98.70
2018-09-18T22:30:54.710Z,99.00
2018-09-18T22:33:23.950Z,98.70
2018-09-18T22:35:53.094Z,98.70
2018-09-18T22:38:22.282Z,98.70
2018-09-18T22:40:51.503Z,98.70
2018-09-18T22:43:20.649Z,98.80
2018-09-18T22:45:49.839Z,98.70
2018-09-18T22:48:19.193Z,98.70
2018-09-18T22:50:48.399Z,98.60
2018-09-18T22:53:17.509Z,98.50
2018-09-18T22:55:46.710Z,98.50
2018-09-18T22:58:16.123Z,98.70
2018-09-18T23:00:45.309Z,98.80
2018-09-18T23:03:14.438Z,99.20
2018-09-18T23:05:44.018Z,99.50
2018-09-18T23:08:13.519Z,99.50
2018-09-18T23:10:43.100Z,99.50
2018-09-18T23:13:12.597Z,99.60
2018-09-18T23:15:41.830Z,99.90
2018-09-18T23:18:10.963Z,99.90
2018-09-18T23:20:40.115Z,99.90
2018-09-18T23:23:10.502Z,99.90
2018-09-18T23:25:39.694Z,99.90
2018-09-18T23:28:08.788Z,99.90
2018-09-18T23:30:37.886Z,99.90
2018-09-18T23:33:07.037Z,99.90
2018-09-18T23:35:36.138Z,99.90
2018-09-18T23:38:05.346Z,99.90
2018-09-18T23:40:34.540Z,99.90
2018-09-18T23:43:03.717Z,99.90
2018-09-18T23:45:32.850Z,99.90
2018-09-18T23:48:02.061Z,99.90
2018-09-18T23:50:31.256Z,99.90
2018-09-18T23:53:00.425Z,99.90
2018-09-18T23:55:29.696Z,99.90
2018-09-18T23:57:58.863Z,99.90
